createdAt,value
2022-09-09T00:01:25.999Z,10.80
2022-09-09T00:04:03.962Z,10.74
2022-09-09T00:06:39.032Z,10.67
2022-09-09T00:09:13.739Z,10.68
2022-09-09T00:12:04.470Z,10.75
2022-09-09T00:14:43.896Z,10.59
2022-09-09T00:17:36.345Z,10.58
2022-09-09T00:20:13.181Z,10.54
2022-09-09T00:22:54.723Z,10.58
2022-09-09T00:25:43.370Z,10.61
2022-09-09T00:28:19.626Z,10.55
2022-09-09T00:30:50.269Z,10.44
2022-09-09T00:34:38.612Z,10.43
2022-09-09T00:37:05.651Z,10.39
2022-09-09T00:39:40.227Z,10.40
2022-09-09T00:42:31.161Z,10.44
2022-09-09T00:45:15.196Z,10.38
2022-09-09T00:47:47.001Z,10.36
2022-09-09T00:50:44.720Z,10.18
2022-09-09T00:53:32.181Z,10.21
2022-09-09T00:56:21.074Z,10.18
2022-09-09T00:59:20.923Z,10.11
2022-09-09T01:06:15.710Z,10.14
2022-09-09T01:09:00.551Z,10.12
2022-09-09T01:12:12.464Z,10.11
2022-09-09T01:14:38.965Z,10.06
2022-09-09T01:20:14.148Z,9.94
2022-09-09T01:23:09.121Z,10.00
2022-09-09T01:25:44.814Z,9.87
2022-09-09T01:28:17.050Z,10.06
2022-09-09T01:30:43.909Z,10.02
2022-09-09T01:33:18.912Z,10.09
2022-09-09T01:35:48.147Z,10.02
2022-09-09T01:38:16.209Z,10.04
2022-09-09T01:40:42.841Z,10.11
2022-09-09T01:43:10.191Z,10.14
2022-09-09T01:45:37.674Z,10.17
2022-09-09T01:48:04.487Z,10.23
2022-09-09T01:50:31.013Z,10.21
2022-09-09T01:53:05.679Z,10.19
2022-09-09T01:55:38.532Z,10.26
2022-09-09T01:58:23.107Z,10.31
2022-09-09T02:01:16.530Z,10.28
2022-09-09T02:03:48.124Z,10.35
2022-09-09T02:06:38.683Z,10.51
2022-09-09T02:09:13.163Z,10.53
2022-09-09T02:11:41.034Z,10.47
2022-09-09T02:14:38.719Z,10.63
2022-09-09T02:17:11.855Z,10.68
2022-09-09T02:23:13.839Z,10.80
2022-09-09T02:25:42.614Z,10.73
2022-09-09T02:28:11.564Z,10.77
2022-09-09T02:30:40.756Z,10.72
2022-09-09T02:33:08.987Z,10.67
2022-09-09T02:35:38.607Z,10.79
2022-09-09T02:38:10.465Z,10.76
2022-09-09T02:40:37.141Z,10.76
2022-09-09T02:43:04.045Z,10.74
2022-09-09T02:45:43.230Z,10.89
2022-09-09T02:48:24.850Z,10.87
2022-09-09T02:51:18.020Z,10.92
2022-09-09T02:53:52.963Z,10.96
2022-09-09T02:56:23.035Z,10.96
2022-09-09T02:58:52.082Z,11.00
2022-09-09T03:01:19.046Z,11.13
2022-09-09T03:03:47.461Z,11.17
2022-09-09T03:06:15.871Z,11.17
2022-09-09T03:08:49.261Z,11.29
2022-09-09T03:11:17.566Z,11.30
2022-09-09T03:13:44.613Z,11.30
2022-09-09T03:16:11.105Z,11.36
2022-09-09T03:18:37.666Z,11.35
2022-09-09T03:21:04.226Z,11.40
2022-09-09T03:23:30.730Z,11.46
2022-09-09T03:25:58.097Z,11.54
2022-09-09T03:28:26.162Z,11.52
2022-09-09T03:30:52.917Z,11.46
2022-09-09T03:33:19.483Z,11.48
2022-09-09T03:35:51.656Z,11.48
2022-09-09T03:38:18.270Z,11.46
2022-09-09T03:40:52.772Z,11.46
2022-09-09T03:43:19.298Z,11.38
2022-09-09T03:45:49.074Z,11.41
2022-09-09T03:48:16.521Z,11.39
2022-09-09T03:50:51.971Z,11.36
2022-09-09T03:53:20.490Z,11.43
2022-09-09T03:55:50.540Z,11.47
2022-09-09T03:58:19.270Z,11.44
2022-09-09T04:00:59.998Z,11.44
2022-09-09T04:03:28.343Z,11.53
2022-09-09T04:06:00.777Z,11.51
2022-09-09T04:08:30.730Z,11.54
2022-09-09T04:11:02.391Z,11.57
2022-09-09T04:13:29.094Z,11.51
2022-09-09T04:15:58.166Z,11.51
2022-09-09T04:18:26.118Z,11.48
2022-09-09T04:21:07.359Z,11.52
2022-09-09T04:23:39.302Z,11.62
2022-09-09T04:26:08.449Z,11.66
2022-09-09T04:29:30.418Z,11.82
2022-09-09T04:32:06.379Z,11.75
2022-09-09T04:34:34.097Z,11.72
2022-09-09T04:37:01.404Z,11.76
2022-09-09T04:39:27.882Z,11.77
2022-09-09T04:41:54.405Z,11.76
2022-09-09T04:44:21.324Z,11.85
2022-09-09T04:47:27.062Z,11.82
2022-09-09T04:49:55.429Z,11.92
2022-09-09T04:52:22.030Z,11.90
2022-09-09T04:55:01.740Z,11.95
2022-09-09T04:57:28.226Z,11.93
2022-09-09T04:59:54.744Z,11.94
2022-09-09T05:02:21.351Z,12.07
2022-09-09T05:04:47.910Z,12.11
2022-09-09T05:07:15.682Z,12.14
2022-09-09T05:09:44.888Z,12.14
2022-09-09T05:12:12.039Z,12.11
2022-09-09T05:14:38.558Z,12.08
2022-09-09T05:17:05.718Z,12.15
2022-09-09T05:19:32.224Z,12.32
2022-09-09T05:30:20.973Z,12.70
2022-09-09T05:32:49.870Z,12.48
2022-09-09T05:43:31.522Z,12.48
2022-09-09T05:51:05.325Z,12.56
2022-09-09T05:54:24.923Z,12.63
2022-09-09T05:56:57.282Z,12.79
2022-09-09T05:59:54.212Z,13.00
2022-09-09T06:02:21.110Z,13.17
2022-09-09T06:05:05.051Z,13.24
2022-09-09T06:07:31.773Z,13.19
2022-09-09T06:10:00.032Z,13.27
2022-09-09T06:12:27.121Z,13.35
2022-09-09T06:14:53.647Z,13.60
2022-09-09T06:17:20.413Z,13.96
2022-09-09T06:19:47.375Z,14.07
2022-09-09T06:22:13.940Z,14.14
2022-09-09T06:24:40.437Z,14.52
2022-09-09T06:27:06.879Z,14.65
2022-09-09T06:29:33.503Z,14.77
2022-09-09T06:32:00.141Z,14.87
2022-09-09T06:34:26.781Z,14.84
2022-09-09T06:36:53.279Z,14.66
2022-09-09T06:39:19.722Z,14.61
2022-09-09T06:41:46.278Z,14.52
2022-09-09T06:44:12.887Z,14.43
2022-09-09T06:46:40.708Z,14.57
2022-09-09T06:49:08.736Z,14.67
2022-09-09T06:51:37.488Z,14.27
2022-09-09T06:54:05.302Z,14.35
2022-09-09T06:56:36.925Z,14.41
2022-09-09T06:59:08.813Z,14.39
2022-09-09T07:01:37.892Z,14.42
2022-09-09T07:04:08.669Z,14.37
2022-09-09T07:06:38.086Z,14.42
2022-09-09T07:09:10.293Z,14.39
2022-09-09T07:11:44.876Z,14.42
2022-09-09T07:14:15.349Z,14.40
2022-09-09T07:16:43.349Z,14.43
2022-09-09T07:19:10.770Z,14.30
2022-09-09T07:21:37.372Z,14.31
2022-09-09T07:24:05.269Z,14.40
2022-09-09T07:26:31.994Z,14.57
2022-09-09T07:28:58.743Z,14.64
2022-09-09T07:31:33.653Z,14.48
2022-09-09T07:34:01.379Z,14.43
2022-09-09T07:36:33.772Z,14.29
2022-09-09T07:39:10.140Z,14.60
2022-09-09T07:41:42.469Z,14.58
2022-09-09T07:44:11.880Z,14.60
2022-09-09T07:46:43.096Z,14.89
2022-09-09T07:49:10.962Z,14.91
2022-09-09T07:51:42.847Z,14.98
2022-09-09T07:54:12.184Z,15.25
2022-09-09T07:56:40.495Z,15.53
2022-09-09T07:59:16.027Z,15.71
2022-09-09T08:01:49.022Z,16.12
2022-09-09T08:04:18.412Z,16.10
2022-09-09T08:06:57.255Z,16.23
2022-09-09T08:09:29.655Z,16.40
2022-09-09T08:11:59.233Z,16.59
2022-09-09T08:14:28.736Z,16.43
2022-09-09T08:16:55.557Z,16.49
2022-09-09T08:19:22.300Z,16.47
2022-09-09T08:21:49.985Z,16.56
2022-09-09T08:24:16.707Z,16.27
2022-09-09T08:26:45.707Z,16.20
2022-09-09T08:29:14.839Z,16.11
2022-09-09T08:31:47.885Z,16.29
2022-09-09T08:42:36.304Z,16.62
2022-09-09T08:49:23.332Z,16.59
2022-09-09T08:51:50.937Z,16.54
2022-09-09T08:57:53.777Z,16.75
2022-09-09T09:00:20.827Z,16.85
2022-09-09T09:03:16.517Z,16.81
2022-09-09T09:05:50.531Z,16.84
2022-09-09T09:08:44.876Z,16.82
2022-09-09T09:11:11.466Z,16.74
2022-09-09T09:13:54.916Z,16.57
2022-09-09T09:16:33.336Z,16.60
2022-09-09T09:19:01.194Z,16.83
2022-09-09T09:22:11.217Z,17.00
2022-09-09T09:24:57.291Z,17.31
2022-09-09T09:27:36.316Z,17.55
2022-09-09T09:30:29.548Z,17.84
2022-09-09T09:33:18.144Z,17.76
2022-09-09T09:35:46.226Z,17.73
2022-09-09T09:41:10.544Z,17.54
2022-09-09T09:43:42.805Z,17.72
2022-09-09T09:46:24.702Z,17.72
2022-09-09T09:49:06.499Z,17.83
2022-09-09T09:51:34.858Z,17.95
2022-09-09T09:54:19.839Z,17.66
2022-09-09T09:56:47.302Z,17.34
2022-09-09T09:59:39.238Z,17.28
2022-09-09T10:02:22.127Z,17.24
2022-09-09T10:04:48.787Z,17.16
2022-09-09T10:07:21.367Z,17.14
2022-09-09T10:09:58.782Z,17.05
2022-09-09T10:12:47.673Z,16.93
2022-09-09T10:15:43.817Z,17.09
2022-09-09T10:18:37.362Z,17.09
2022-09-09T10:21:44.617Z,16.99
2022-09-09T10:24:11.126Z,16.96
2022-09-09T10:26:56.390Z,17.03
2022-09-09T10:29:22.958Z,17.10
2022-09-09T10:32:34.127Z,16.90
2022-09-09T10:35:25.264Z,16.74
2022-09-09T10:37:51.709Z,16.84
2022-09-09T10:40:45.429Z,16.76
2022-09-09T10:43:14.807Z,16.91
2022-09-09T10:46:01.592Z,17.12
2022-09-09T10:48:51.153Z,17.24
2022-09-09T10:51:51.573Z,17.24
2022-09-09T10:54:47.537Z,17.45
2022-09-09T10:57:29.624Z,17.70
2022-09-09T11:00:05.562Z,17.91
2022-09-09T11:02:34.372Z,18.45
2022-09-09T11:05:19.302Z,18.63
2022-09-09T11:07:57.110Z,18.86
2022-09-09T11:10:35.450Z,18.98
2022-09-09T11:13:09.976Z,19.00
2022-09-09T11:15:42.711Z,19.10
2022-09-09T11:18:16.422Z,19.34
2022-09-09T11:20:45.678Z,19.22
2022-09-09T11:23:22.043Z,18.90
2022-09-09T11:25:58.979Z,18.86
2022-09-09T11:28:53.210Z,18.43
2022-09-09T11:31:38.113Z,18.72
2022-09-09T11:34:42.165Z,18.59
2022-09-09T11:37:08.805Z,18.52
2022-09-09T11:39:42.966Z,18.49
2022-09-09T11:42:29.765Z,18.66
2022-09-09T11:44:57.755Z,18.96
2022-09-09T11:47:32.318Z,19.04
2022-09-09T11:50:32.778Z,19.12
2022-09-09T11:53:25.713Z,19.20
2022-09-09T11:56:11.929Z,19.01
2022-09-09T11:58:43.763Z,19.22
2022-09-09T12:01:28.223Z,19.38
2022-09-09T12:04:23.304Z,18.45
2022-09-09T12:07:39.253Z,18.39
2022-09-09T12:10:23.655Z,18.23
2022-09-09T12:12:50.175Z,18.29
2022-09-09T12:15:16.594Z,18.28
2022-09-09T12:17:46.096Z,18.15
2022-09-09T12:20:35.011Z,18.51
2022-09-09T12:23:36.819Z,18.11
2022-09-09T12:26:10.752Z,18.11
2022-09-09T12:28:58.203Z,18.01
2022-09-09T12:31:52.188Z,17.90
2022-09-09T12:34:40.838Z,17.84
2022-09-09T12:37:32.642Z,17.59
2022-09-09T12:40:20.358Z,17.55
2022-09-09T12:42:46.908Z,17.24
2022-09-09T12:45:21.656Z,17.20
2022-09-09T12:48:20.266Z,17.16
2022-09-09T12:50:50.809Z,17.13
2022-09-09T12:53:27.634Z,17.12
2022-09-09T12:55:59.692Z,17.19
2022-09-09T12:58:29.292Z,17.21
2022-09-09T13:00:58.352Z,17.20
2022-09-09T13:03:26.015Z,17.52
2022-09-09T13:05:54.292Z,17.63
2022-09-09T13:08:21.523Z,17.92
2022-09-09T13:11:04.111Z,18.00
2022-09-09T13:13:39.494Z,18.20
2022-09-09T13:16:18.278Z,18.38
2022-09-09T13:18:46.134Z,18.34
2022-09-09T13:21:12.949Z,18.27
2022-09-09T13:23:40.115Z,18.35
2022-09-09T13:26:27.496Z,18.42
2022-09-09T13:28:55.102Z,18.11
2022-09-09T13:31:29.730Z,17.85
2022-09-09T13:33:56.979Z,17.77
2022-09-09T13:36:32.438Z,17.83
2022-09-09T13:39:04.331Z,17.79
2022-09-09T13:41:34.491Z,17.63
2022-09-09T13:44:02.351Z,17.39
2022-09-09T13:46:36.321Z,17.42
2022-09-09T13:49:22.973Z,17.28
2022-09-09T13:52:03.527Z,17.37
2022-09-09T13:54:31.755Z,17.49
2022-09-09T13:56:58.253Z,17.68
2022-09-09T13:59:30.641Z,17.53
2022-09-09T14:02:09.526Z,17.70
2022-09-09T14:04:36.133Z,17.87
2022-09-09T14:07:03.287Z,17.98
2022-09-09T14:09:29.856Z,18.00
2022-09-09T14:11:56.333Z,17.98
2022-09-09T14:14:22.801Z,18.12
2022-09-09T14:16:49.266Z,18.19
2022-09-09T14:19:15.737Z,18.15
2022-09-09T14:21:42.289Z,18.32
2022-09-09T14:24:08.742Z,18.87
2022-09-09T14:26:35.267Z,19.42
2022-09-09T14:29:02.610Z,19.41
2022-09-09T14:31:29.576Z,19.51
2022-09-09T14:33:56.138Z,19.42
2022-09-09T14:36:22.659Z,19.95
2022-09-09T14:38:49.269Z,20.43
2022-09-09T14:41:18.541Z,20.13
2022-09-09T14:43:46.057Z,20.18
2022-09-09T14:46:18.022Z,20.20
2022-09-09T14:48:46.155Z,19.54
2022-09-09T14:51:25.988Z,19.29
2022-09-09T14:53:54.385Z,19.26
2022-09-09T14:56:24.094Z,19.42
2022-09-09T14:58:51.940Z,19.47
2022-09-09T15:01:21.450Z,19.35
2022-09-09T15:03:53.720Z,19.37
2022-09-09T15:06:22.221Z,19.16
2022-09-09T15:08:50.630Z,19.22
2022-09-09T15:11:17.304Z,19.14
2022-09-09T15:13:44.596Z,19.14
2022-09-09T15:16:13.775Z,18.90
2022-09-09T15:18:46.416Z,18.45
2022-09-09T15:21:19.997Z,18.66
2022-09-09T15:23:48.112Z,18.42
2022-09-09T15:26:16.108Z,18.42
2022-09-09T15:28:44.573Z,18.34
2022-09-09T15:31:18.594Z,18.30
2022-09-09T15:34:01.620Z,18.18
2022-09-09T15:36:49.763Z,18.00
2022-09-09T15:39:18.071Z,17.92
2022-09-09T15:41:49.165Z,17.72
2022-09-09T15:44:16.645Z,17.70
2022-09-09T15:46:50.164Z,17.48
2022-09-09T15:49:19.338Z,17.61
2022-09-09T15:51:48.299Z,17.45
2022-09-09T15:54:21.773Z,17.44
2022-09-09T15:56:52.646Z,17.31
2022-09-09T15:59:19.404Z,17.11
2022-09-09T16:01:45.987Z,17.00
2022-09-09T16:04:12.958Z,17.03
2022-09-09T16:06:40.176Z,16.89
2022-09-09T16:09:08.151Z,16.86
2022-09-09T16:11:37.826Z,16.81
2022-09-09T16:14:05.212Z,16.79
2022-09-09T16:16:32.181Z,16.83
2022-09-09T16:19:01.169Z,16.70
2022-09-09T16:21:36.082Z,16.76
2022-09-09T16:24:03.817Z,16.72
2022-09-09T16:26:32.320Z,16.84
2022-09-09T16:28:59.904Z,16.73
2022-09-09T16:31:28.262Z,16.63
2022-09-09T16:33:54.925Z,16.62
2022-09-09T16:36:31.283Z,16.60
2022-09-09T16:39:03.645Z,16.69
2022-09-09T16:41:31.060Z,16.61
2022-09-09T16:44:00.152Z,16.52
2022-09-09T16:46:28.759Z,16.47
2022-09-09T16:48:57.609Z,16.40
2022-09-09T16:51:27.666Z,16.35
2022-09-09T16:53:55.189Z,16.32
2022-09-09T16:56:27.577Z,16.21
2022-09-09T16:58:56.636Z,16.12
2022-09-09T17:01:28.604Z,16.01
2022-09-09T17:04:01.301Z,15.91
2022-09-09T17:06:33.517Z,15.77
2022-09-09T17:09:02.532Z,15.67
2022-09-09T17:11:30.286Z,15.58
2022-09-09T17:13:59.139Z,15.46
2022-09-09T17:16:28.554Z,15.41
2022-09-09T17:18:56.516Z,15.31
2022-09-09T17:21:25.259Z,15.22
2022-09-09T17:23:52.499Z,15.17
2022-09-09T17:26:22.181Z,15.15
2022-09-09T17:28:49.112Z,15.12
2022-09-09T17:31:18.336Z,15.10
2022-09-09T17:33:50.889Z,15.24
2022-09-09T17:36:29.261Z,15.20
2022-09-09T17:38:56.427Z,15.12
2022-09-09T17:41:29.156Z,15.18
2022-09-09T17:43:56.121Z,15.20
2022-09-09T17:46:28.463Z,15.11
2022-09-09T17:49:00.438Z,15.09
2022-09-09T17:51:30.671Z,15.15
2022-09-09T17:54:00.856Z,15.19
2022-09-09T17:56:31.613Z,15.06
2022-09-09T17:59:00.108Z,14.94
2022-09-09T18:01:29.807Z,14.83
2022-09-09T18:03:57.479Z,14.71
2022-09-09T18:06:28.053Z,14.59
2022-09-09T18:08:57.062Z,14.59
2022-09-09T18:11:26.098Z,14.56
2022-09-09T18:13:55.224Z,14.52
2022-09-09T18:16:22.687Z,14.45
2022-09-09T18:18:52.735Z,14.57
2022-09-09T18:21:21.624Z,14.59
2022-09-09T18:23:50.777Z,14.54
2022-09-09T18:26:24.225Z,14.54
2022-09-09T18:28:53.194Z,14.53
2022-09-09T18:31:23.525Z,14.66
2022-09-09T18:33:53.173Z,14.57
2022-09-09T18:36:21.992Z,14.53
2022-09-09T18:38:49.657Z,14.50
2022-09-09T18:41:21.562Z,14.41
2022-09-09T18:43:50.096Z,14.32
2022-09-09T18:46:18.381Z,14.31
2022-09-09T18:48:46.836Z,14.26
2022-09-09T18:51:19.214Z,14.22
2022-09-09T18:53:57.647Z,14.26
2022-09-09T18:56:24.786Z,14.22
2022-09-09T18:58:56.521Z,14.20
2022-09-09T19:01:23.694Z,14.20
2022-09-09T19:03:51.307Z,14.16
2022-09-09T19:06:21.910Z,14.16
2022-09-09T19:08:52.289Z,14.08
2022-09-09T19:11:24.112Z,14.08
2022-09-09T19:14:02.369Z,14.10
2022-09-09T19:16:31.648Z,14.08
2022-09-09T19:19:00.797Z,13.98
2022-09-09T19:21:30.585Z,13.95
2022-09-09T19:24:09.090Z,13.91
2022-09-09T19:26:43.915Z,13.85
2022-09-09T19:29:16.751Z,13.82
2022-09-09T19:32:01.945Z,13.81
2022-09-09T19:34:34.711Z,13.78
2022-09-09T19:37:01.293Z,13.75
2022-09-09T19:39:28.279Z,13.71
2022-09-09T19:41:55.257Z,13.70
2022-09-09T19:44:22.608Z,13.70
2022-09-09T19:46:49.941Z,13.69
2022-09-09T19:49:17.761Z,13.67
2022-09-09T19:51:44.607Z,13.72
2022-09-09T19:54:13.998Z,13.69
2022-09-09T19:56:42.625Z,13.60
2022-09-09T19:59:11.114Z,13.59
2022-09-09T20:01:40.997Z,13.54
2022-09-09T20:04:08.772Z,13.51
2022-09-09T20:06:37.931Z,13.41
2022-09-09T20:09:06.287Z,13.26
2022-09-09T20:11:33.826Z,13.23
2022-09-09T20:14:00.392Z,13.03
2022-09-09T20:16:31.152Z,12.93
2022-09-09T20:19:03.735Z,12.76
2022-09-09T20:21:36.595Z,12.62
2022-09-09T20:24:08.952Z,12.53
2022-09-09T20:26:37.548Z,12.48
2022-09-09T20:29:07.753Z,12.41
2022-09-09T20:31:36.678Z,12.28
2022-09-09T20:34:06.887Z,12.34
2022-09-09T20:36:35.466Z,12.32
2022-09-09T20:39:19.913Z,12.39
2022-09-09T20:41:47.078Z,12.46
2022-09-09T20:44:20.014Z,12.52
2022-09-09T20:46:48.451Z,12.56
2022-09-09T20:49:17.418Z,12.65
2022-09-09T20:51:44.475Z,12.82
2022-09-09T20:54:14.492Z,12.87
2022-09-09T20:56:42.318Z,12.88
2022-09-09T20:59:12.318Z,12.94
2022-09-09T21:01:39.132Z,12.99
2022-09-09T21:04:06.821Z,13.08
2022-09-09T21:06:33.300Z,13.12
2022-09-09T21:08:59.824Z,13.13
2022-09-09T21:11:26.385Z,13.14
2022-09-09T21:13:53.321Z,13.04
2022-09-09T21:16:21.261Z,12.95
2022-09-09T21:18:49.755Z,12.82
2022-09-09T21:21:21.147Z,12.81
2022-09-09T21:23:49.390Z,12.68
2022-09-09T21:26:18.174Z,12.63
2022-09-09T21:28:44.610Z,12.62
2022-09-09T21:31:16.307Z,12.72
2022-09-09T21:33:43.056Z,12.77
2022-09-09T21:36:12.413Z,12.77
2022-09-09T21:38:42.249Z,12.77
2022-09-09T21:41:13.013Z,12.75
2022-09-09T21:43:41.776Z,12.80
2022-09-09T21:46:10.229Z,12.75
2022-09-09T21:48:37.004Z,12.69
2022-09-09T21:51:06.327Z,12.70
2022-09-09T21:53:33.386Z,12.62
2022-09-09T21:56:09.467Z,12.58
2022-09-09T21:58:36.603Z,12.65
2022-09-09T22:01:10.328Z,12.66
2022-09-09T22:03:39.043Z,12.59
2022-09-09T22:06:07.282Z,12.49
2022-09-09T22:08:34.031Z,12.37
2022-09-09T22:11:31.337Z,12.19
2022-09-09T22:13:58.062Z,12.09
2022-09-09T22:16:28.365Z,11.94
2022-09-09T22:18:57.029Z,11.86
2022-09-09T22:21:24.902Z,11.77
2022-09-09T22:23:56.771Z,11.61
2022-09-09T22:26:24.501Z,11.58
2022-09-09T22:28:53.740Z,11.53
2022-09-09T22:31:22.721Z,11.56
2022-09-09T22:33:49.474Z,11.48
2022-09-09T22:36:16.086Z,11.40
2022-09-09T22:38:45.035Z,11.33
2022-09-09T22:41:11.580Z,11.31
2022-09-09T22:43:38.019Z,11.28
2022-09-09T22:46:04.580Z,11.25
2022-09-09T22:48:35.402Z,11.23
2022-09-09T22:51:11.148Z,11.20
2022-09-09T22:53:40.746Z,11.20
2022-09-09T22:56:12.528Z,11.12
2022-09-09T22:58:39.761Z,11.13
2022-09-09T23:01:15.509Z,11.14
2022-09-09T23:03:42.399Z,11.14
2022-09-09T23:06:11.565Z,11.11
2022-09-09T23:08:38.934Z,11.15
2022-09-09T23:11:10.591Z,11.22
2022-09-09T23:13:41.262Z,11.24
2022-09-09T23:16:16.444Z,11.25
2022-09-09T23:18:43.746Z,11.42
2022-09-09T23:21:12.095Z,11.59
2022-09-09T23:23:40.643Z,11.62
2022-09-09T23:26:09.425Z,11.74
2022-09-09T23:28:38.420Z,11.82
2022-09-09T23:31:10.603Z,11.90
2022-09-09T23:33:37.436Z,12.05
2022-09-09T23:36:08.372Z,12.10
2022-09-09T23:38:37.938Z,12.11
2022-09-09T23:41:06.429Z,12.19
2022-09-09T23:43:39.352Z,12.23
2022-09-09T23:46:09.010Z,12.24
2022-09-09T23:48:38.649Z,12.24
2022-09-09T23:51:06.636Z,12.20
2022-09-09T23:53:33.357Z,12.25
2022-09-09T23:55:59.810Z,12.22
2022-09-09T23:58:26.409Z,12.22
